createdAt,value
2022-12-26T00:01:36.319Z,38.73
2022-12-26T00:04:04.617Z,37.53
2022-12-26T00:06:32.790Z,38.40
2022-12-26T00:09:02.543Z,37.83
2022-12-26T00:11:30.301Z,37.10
2022-12-26T00:14:00.422Z,39.43
2022-12-26T00:16:28.570Z,37.73
2022-12-26T00:18:56.366Z,40.00
2022-12-26T00:21:27.306Z,37.93
2022-12-26T00:23:57.072Z,36.50
2022-12-26T00:26:27.817Z,39.63
2022-12-26T00:28:56.141Z,40.00
2022-12-26T00:31:29.781Z,36.70
2022-12-26T00:33:57.174Z,39.77
2022-12-26T00:36:29.690Z,40.77
2022-12-26T00:38:58.374Z,40.37
2022-12-26T00:41:26.311Z,37.53
2022-12-26T00:43:54.100Z,41.17
2022-12-26T00:46:27.277Z,39.97
2022-12-26T00:48:56.401Z,42.13
2022-12-26T00:51:24.748Z,44.93
2022-12-26T00:53:52.076Z,42.37
2022-12-26T00:56:20.621Z,39.47
2022-12-26T00:58:47.956Z,40.33
2022-12-26T01:01:19.062Z,40.07
2022-12-26T01:03:48.205Z,40.27
2022-12-26T01:06:16.846Z,40.97
2022-12-26T01:08:44.178Z,41.47
2022-12-26T01:11:13.591Z,40.13
2022-12-26T01:13:40.844Z,38.37
2022-12-26T01:16:08.900Z,39.03
2022-12-26T01:18:36.375Z,40.93
2022-12-26T01:21:10.438Z,40.63
2022-12-26T01:23:37.870Z,41.50
2022-12-26T01:26:16.909Z,42.60
2022-12-26T01:28:51.406Z,39.37
2022-12-26T01:31:20.619Z,38.77
2022-12-26T01:33:49.476Z,38.03
2022-12-26T01:36:17.653Z,38.83
2022-12-26T01:38:45.280Z,37.10
2022-12-26T01:41:22.381Z,39.13
2022-12-26T01:44:04.156Z,40.23
2022-12-26T01:46:35.167Z,40.40
2022-12-26T01:49:19.574Z,38.30
2022-12-26T01:51:53.445Z,38.73
2022-12-26T01:54:38.362Z,38.23
2022-12-26T01:57:47.854Z,38.63
2022-12-26T02:00:15.987Z,37.50
2022-12-26T02:03:02.909Z,37.90
2022-12-26T02:05:34.490Z,39.53
2022-12-26T02:08:06.032Z,37.37
2022-12-26T02:10:44.281Z,33.93
2022-12-26T02:13:13.946Z,38.43
2022-12-26T02:15:42.470Z,38.63
2022-12-26T02:18:10.013Z,39.57
2022-12-26T02:21:00.285Z,38.87
2022-12-26T02:23:58.235Z,36.03
2022-12-26T02:26:46.862Z,41.50
2022-12-26T02:29:32.853Z,38.80
2022-12-26T02:32:37.335Z,40.53
2022-12-26T02:35:10.829Z,39.63
2022-12-26T02:38:04.963Z,32.80
2022-12-26T02:40:42.819Z,38.23
2022-12-26T02:43:23.688Z,37.33
2022-12-26T02:46:39.730Z,37.70
2022-12-26T02:49:29.946Z,39.77
2022-12-26T02:52:37.318Z,37.33
2022-12-26T02:55:30.571Z,39.57
2022-12-26T02:58:40.316Z,39.63
2022-12-26T03:01:45.246Z,40.17
2022-12-26T03:04:34.825Z,40.77
2022-12-26T03:07:23.864Z,33.53
2022-12-26T03:10:11.726Z,36.63
2022-12-26T03:13:12.193Z,33.40
2022-12-26T03:16:17.937Z,32.27
2022-12-26T03:18:58.594Z,34.57
2022-12-26T03:21:35.767Z,34.53
2022-12-26T03:24:03.113Z,33.57
2022-12-26T03:26:41.204Z,35.10
2022-12-26T03:29:34.134Z,36.03
2022-12-26T03:32:04.078Z,38.10
2022-12-26T03:34:31.371Z,44.77
2022-12-26T03:37:04.825Z,40.53
2022-12-26T03:40:15.888Z,46.87
2022-12-26T03:43:02.117Z,44.90
2022-12-26T03:46:27.181Z,45.43
2022-12-26T03:49:15.831Z,45.53
2022-12-26T03:52:08.531Z,44.90
2022-12-26T03:54:59.443Z,49.53
2022-12-26T03:57:55.015Z,48.90
2022-12-26T04:00:41.159Z,44.43
2022-12-26T04:03:31.693Z,42.63
2022-12-26T04:06:21.414Z,47.63
2022-12-26T04:09:17.321Z,48.27
2022-12-26T04:12:04.650Z,47.37
2022-12-26T04:15:01.137Z,49.03
2022-12-26T04:18:14.522Z,46.20
2022-12-26T04:20:47.335Z,47.20
2022-12-26T04:23:41.537Z,48.30
2022-12-26T04:26:40.250Z,48.70
2022-12-26T04:29:26.653Z,52.30
2022-12-26T04:32:29.740Z,47.90
2022-12-26T04:35:29.836Z,53.67
2022-12-26T04:38:17.065Z,60.90
2022-12-26T04:41:09.393Z,55.73
2022-12-26T04:43:56.665Z,56.60
2022-12-26T04:46:26.018Z,57.57
2022-12-26T04:49:13.596Z,62.03
2022-12-26T04:51:41.193Z,62.37
2022-12-26T04:54:09.039Z,62.20
2022-12-26T04:56:36.493Z,63.83
2022-12-26T04:59:04.121Z,64.80
2022-12-26T05:01:50.178Z,62.60
2022-12-26T05:04:37.180Z,59.30
2022-12-26T05:07:25.477Z,53.67
2022-12-26T05:09:54.107Z,61.93
2022-12-26T05:12:22.119Z,61.40
2022-12-26T05:14:49.427Z,56.33
2022-12-26T05:17:35.920Z,53.90
2022-12-26T05:20:22.219Z,51.80
2022-12-26T05:23:08.038Z,52.70
2022-12-26T05:25:55.859Z,46.87
2022-12-26T05:28:41.918Z,48.23
2022-12-26T05:31:15.011Z,46.43
2022-12-26T05:34:03.250Z,48.17
2022-12-26T05:36:35.034Z,45.40
2022-12-26T05:39:03.467Z,42.43
2022-12-26T05:41:30.736Z,43.37
2022-12-26T05:43:58.468Z,43.77
2022-12-26T05:46:25.936Z,42.40
2022-12-26T05:48:53.487Z,42.37
2022-12-26T05:51:20.818Z,38.57
2022-12-26T05:53:48.630Z,41.80
2022-12-26T05:56:17.222Z,44.50
2022-12-26T05:58:45.692Z,39.53
2022-12-26T06:01:16.054Z,40.73
2022-12-26T06:03:47.701Z,38.90
2022-12-26T06:06:15.804Z,38.77
2022-12-26T06:08:43.776Z,36.53
2022-12-26T06:11:13.237Z,40.10
2022-12-26T06:13:41.862Z,35.33
2022-12-26T06:16:11.931Z,35.63
2022-12-26T06:18:40.847Z,34.30
2022-12-26T06:21:12.387Z,36.50
2022-12-26T06:23:41.014Z,35.23
2022-12-26T06:26:10.456Z,33.17
2022-12-26T06:28:38.897Z,36.83
2022-12-26T06:31:09.427Z,33.77
2022-12-26T06:33:37.819Z,34.80
2022-12-26T06:36:11.081Z,34.77
2022-12-26T06:38:39.128Z,34.90
2022-12-26T06:41:08.255Z,34.07
2022-12-26T06:43:36.277Z,33.80
2022-12-26T06:46:05.763Z,32.60
2022-12-26T06:48:39.960Z,31.17
2022-12-26T06:51:11.509Z,34.57
2022-12-26T06:53:39.579Z,31.20
2022-12-26T06:56:11.173Z,32.37
2022-12-26T06:58:39.602Z,30.63
2022-12-26T07:01:13.572Z,31.33
2022-12-26T07:03:50.481Z,31.50
2022-12-26T07:06:27.365Z,30.67
2022-12-26T07:08:58.199Z,28.63
2022-12-26T07:11:29.692Z,27.93
2022-12-26T07:13:57.899Z,27.13
2022-12-26T07:16:25.714Z,27.77
2022-12-26T07:18:57.975Z,27.57
2022-12-26T07:21:26.606Z,28.23
2022-12-26T07:23:55.638Z,28.60
2022-12-26T07:26:24.422Z,30.50
2022-12-26T07:28:56.686Z,28.53
2022-12-26T07:31:25.483Z,32.07
2022-12-26T07:33:55.176Z,28.43
2022-12-26T07:36:25.533Z,31.50
2022-12-26T07:38:53.064Z,30.27
2022-12-26T07:41:39.018Z,28.67
2022-12-26T07:44:06.891Z,28.70
2022-12-26T07:46:34.423Z,24.97
2022-12-26T07:49:02.301Z,25.93
2022-12-26T07:51:30.100Z,25.00
2022-12-26T07:53:57.709Z,25.87
2022-12-26T07:56:25.306Z,25.20
2022-12-26T07:58:53.224Z,23.40
2022-12-26T08:01:20.950Z,24.30
2022-12-26T08:03:50.572Z,23.43
2022-12-26T08:06:19.323Z,22.43
2022-12-26T08:08:51.160Z,23.30
2022-12-26T08:11:22.319Z,24.27
2022-12-26T08:13:50.831Z,24.10
2022-12-26T08:16:19.576Z,22.30
2022-12-26T08:18:47.980Z,22.23
2022-12-26T08:21:15.617Z,22.63
2022-12-26T08:23:43.483Z,19.63
2022-12-26T08:26:13.164Z,20.93
2022-12-26T08:28:42.971Z,19.90
2022-12-26T08:31:12.749Z,18.87
2022-12-26T08:33:40.818Z,18.37
2022-12-26T08:36:11.017Z,18.97
2022-12-26T08:38:40.701Z,18.43
2022-12-26T08:41:08.709Z,17.13
2022-12-26T08:44:16.471Z,17.80
2022-12-26T08:46:24.536Z,16.77
2022-12-26T08:48:52.794Z,17.37
2022-12-26T08:51:23.199Z,18.60
2022-12-26T08:53:52.406Z,15.97
2022-12-26T08:56:23.308Z,15.83
2022-12-26T08:58:51.477Z,16.10
2022-12-26T09:01:25.546Z,15.87
2022-12-26T09:03:59.324Z,14.60
2022-12-26T09:06:27.247Z,12.73
2022-12-26T09:08:55.062Z,15.10
2022-12-26T09:11:26.992Z,15.10
2022-12-26T09:13:59.055Z,13.13
2022-12-26T09:16:45.701Z,14.90
2022-12-26T09:19:18.106Z,13.67
2022-12-26T09:21:47.100Z,13.57
2022-12-26T09:24:19.038Z,14.60
2022-12-26T09:26:46.737Z,13.10
2022-12-26T09:29:14.710Z,12.17
2022-12-26T09:31:42.673Z,12.57
2022-12-26T09:34:10.387Z,13.17
2022-12-26T09:36:39.468Z,11.90
2022-12-26T09:39:08.271Z,11.97
2022-12-26T09:42:12.007Z,13.10
2022-12-26T09:45:18.456Z,13.60
2022-12-26T09:48:03.438Z,12.90
2022-12-26T09:50:43.019Z,12.77
2022-12-26T09:53:35.309Z,12.57
2022-12-26T09:56:23.693Z,11.23
2022-12-26T09:59:08.146Z,11.37
2022-12-26T10:01:37.289Z,12.17
2022-12-26T10:04:29.710Z,12.13
2022-12-26T10:07:38.728Z,12.23
2022-12-26T10:10:18.522Z,11.17
2022-12-26T10:13:15.694Z,10.47
2022-12-26T10:15:50.628Z,11.20
2022-12-26T10:18:23.889Z,10.30
2022-12-26T10:21:06.744Z,8.93
2022-12-26T10:23:39.971Z,9.20
2022-12-26T10:26:14.136Z,9.40
2022-12-26T10:29:03.188Z,8.63
2022-12-26T10:31:35.349Z,7.83
2022-12-26T10:34:09.479Z,7.13
2022-12-26T10:36:50.970Z,7.40
2022-12-26T10:39:40.049Z,6.27
2022-12-26T10:42:36.260Z,5.83
2022-12-26T10:45:34.585Z,5.27
2022-12-26T10:48:02.472Z,5.40
2022-12-26T10:50:33.559Z,4.70
2022-12-26T10:53:04.680Z,5.83
2022-12-26T10:55:35.044Z,4.73
2022-12-26T10:58:19.087Z,4.90
2022-12-26T11:00:47.269Z,5.13
2022-12-26T11:03:17.410Z,5.23
2022-12-26T11:06:10.656Z,5.40
2022-12-26T11:08:43.667Z,4.70
2022-12-26T11:11:25.398Z,5.23
2022-12-26T11:14:03.910Z,4.37
2022-12-26T11:16:38.476Z,5.53
2022-12-26T11:19:07.627Z,5.43
2022-12-26T11:21:35.902Z,5.37
2022-12-26T11:24:09.882Z,4.77
2022-12-26T11:26:39.057Z,5.87
2022-12-26T11:29:12.960Z,4.60
2022-12-26T11:32:01.132Z,5.07
2022-12-26T11:34:38.769Z,4.80
2022-12-26T11:37:21.127Z,5.70
2022-12-26T11:39:53.134Z,5.30
2022-12-26T11:42:24.539Z,4.87
2022-12-26T11:44:56.059Z,4.73
2022-12-26T11:47:27.585Z,5.33
2022-12-26T11:49:55.197Z,5.60
2022-12-26T11:52:44.167Z,5.87
2022-12-26T11:55:29.609Z,5.67
2022-12-26T11:58:20.676Z,7.67
2022-12-26T12:00:51.249Z,5.80
2022-12-26T12:03:49.226Z,5.13
2022-12-26T12:06:36.094Z,5.10
2022-12-26T12:09:05.960Z,4.93
2022-12-26T12:12:03.838Z,4.80
2022-12-26T12:14:37.872Z,4.03
2022-12-26T12:17:22.100Z,4.57
2022-12-26T12:19:59.818Z,3.63
2022-12-26T12:22:56.517Z,4.30
2022-12-26T12:25:43.017Z,3.80
2022-12-26T12:29:07.309Z,3.40
2022-12-26T12:31:44.224Z,5.97
2022-12-26T12:34:35.190Z,4.10
2022-12-26T12:37:33.422Z,2.87
2022-12-26T12:40:22.304Z,3.70
2022-12-26T12:43:42.203Z,3.40
2022-12-26T12:46:21.880Z,2.93
2022-12-26T12:49:14.468Z,3.40
2022-12-26T12:51:51.031Z,3.17
2022-12-26T12:54:41.651Z,3.00
2022-12-26T12:57:12.245Z,3.30
2022-12-26T12:59:48.053Z,4.50
2022-12-26T13:02:22.688Z,3.60
2022-12-26T13:04:59.667Z,4.17
2022-12-26T13:07:46.891Z,6.97
2022-12-26T13:10:35.177Z,5.10
2022-12-26T13:13:18.773Z,4.10
2022-12-26T13:15:51.721Z,3.73
2022-12-26T13:18:26.586Z,4.03
2022-12-26T13:21:00.373Z,3.97
2022-12-26T13:23:51.914Z,4.47
2022-12-26T13:26:31.331Z,3.63
2022-12-26T13:29:37.017Z,4.20
2022-12-26T13:32:15.224Z,3.50
2022-12-26T13:34:47.527Z,3.83
2022-12-26T13:37:40.233Z,3.50
2022-12-26T13:40:13.820Z,3.70
2022-12-26T13:43:18.786Z,3.67
2022-12-26T13:45:55.492Z,4.60
2022-12-26T13:48:26.321Z,4.93
2022-12-26T13:50:57.820Z,4.87
2022-12-26T13:53:25.380Z,4.03
2022-12-26T13:55:55.278Z,4.77
2022-12-26T13:58:47.725Z,4.50
2022-12-26T14:01:55.077Z,4.10
2022-12-26T14:04:31.950Z,4.73
2022-12-26T14:07:20.595Z,4.70
2022-12-26T14:10:06.730Z,4.70
2022-12-26T14:13:03.909Z,5.07
2022-12-26T14:16:02.179Z,5.30
2022-12-26T14:18:54.332Z,5.30
2022-12-26T14:21:53.347Z,5.23
2022-12-26T14:24:23.543Z,4.43
2022-12-26T14:27:10.180Z,4.60
2022-12-26T14:30:17.429Z,5.47
2022-12-26T14:33:22.913Z,5.77
2022-12-26T14:36:21.198Z,5.53
2022-12-26T14:38:58.460Z,6.03
2022-12-26T14:41:44.462Z,4.37
2022-12-26T14:44:38.114Z,4.63
2022-12-26T14:47:06.186Z,5.30
2022-12-26T14:49:35.908Z,4.57
2022-12-26T14:52:21.968Z,4.20
2022-12-26T14:54:51.538Z,4.53
2022-12-26T14:57:37.976Z,4.87
2022-12-26T15:00:29.921Z,4.93
2022-12-26T15:03:01.706Z,4.23
2022-12-26T15:05:37.876Z,4.53
2022-12-26T15:08:52.628Z,4.53
2022-12-26T15:12:01.870Z,5.77
2022-12-26T15:14:44.764Z,4.53
2022-12-26T15:17:41.800Z,4.30
2022-12-26T15:20:24.475Z,4.70
2022-12-26T15:23:13.674Z,5.23
2022-12-26T15:25:58.789Z,6.53
2022-12-26T15:28:53.879Z,4.83
2022-12-26T15:31:42.993Z,6.63
2022-12-26T15:34:33.928Z,5.77
2022-12-26T15:37:07.314Z,5.10
2022-12-26T15:40:14.820Z,5.30
2022-12-26T15:43:13.217Z,6.70
2022-12-26T15:45:55.530Z,5.43
2022-12-26T15:48:41.699Z,4.53
2022-12-26T15:51:17.984Z,5.97
2022-12-26T15:54:12.368Z,4.63
2022-12-26T15:57:01.535Z,6.30
2022-12-26T15:59:46.828Z,6.27
2022-12-26T16:02:33.141Z,5.70
2022-12-26T16:05:12.986Z,5.97
2022-12-26T16:08:02.591Z,6.13
2022-12-26T16:10:33.295Z,6.10
2022-12-26T16:13:23.246Z,5.77
2022-12-26T16:15:58.901Z,5.40
2022-12-26T16:18:29.061Z,5.20
2022-12-26T16:21:21.616Z,5.20
2022-12-26T16:23:52.474Z,7.07
2022-12-26T16:26:29.112Z,5.47
2022-12-26T16:29:01.385Z,5.00
2022-12-26T16:31:31.261Z,4.80
2022-12-26T16:34:00.499Z,5.13
2022-12-26T16:36:32.550Z,5.07
2022-12-26T16:39:00.342Z,4.63
2022-12-26T16:41:30.822Z,4.50
2022-12-26T16:44:30.685Z,4.53
2022-12-26T16:47:02.919Z,5.20
2022-12-26T16:49:32.606Z,5.63
2022-12-26T16:52:00.570Z,3.87
2022-12-26T16:54:42.542Z,3.83
2022-12-26T16:57:28.699Z,3.70
2022-12-26T16:59:59.350Z,3.57
2022-12-26T17:02:30.903Z,3.83
2022-12-26T17:05:26.087Z,3.33
2022-12-26T17:07:55.952Z,3.53
2022-12-26T17:10:31.046Z,3.00
2022-12-26T17:13:03.172Z,3.83
2022-12-26T17:15:37.687Z,3.40
2022-12-26T17:18:29.693Z,3.53
2022-12-26T17:21:35.789Z,4.60
2022-12-26T17:24:02.967Z,6.93
2022-12-26T17:26:31.441Z,7.30
2022-12-26T17:28:58.710Z,5.77
2022-12-26T17:31:29.224Z,6.43
2022-12-26T17:33:57.861Z,6.63
2022-12-26T17:37:16.391Z,8.33
2022-12-26T17:39:26.967Z,8.50
2022-12-26T17:41:58.049Z,6.30
2022-12-26T17:44:34.925Z,5.43
2022-12-26T17:47:11.680Z,6.10
2022-12-26T17:49:38.964Z,6.47
2022-12-26T17:52:07.004Z,8.10
2022-12-26T17:54:34.492Z,6.83
2022-12-26T17:57:02.269Z,5.27
2022-12-26T17:59:29.680Z,5.93
2022-12-26T18:01:57.563Z,5.00
2022-12-26T18:04:25.307Z,4.80
2022-12-26T18:06:53.382Z,5.50
2022-12-26T18:09:26.768Z,4.67
2022-12-26T18:11:55.347Z,4.63
2022-12-26T18:14:22.950Z,4.83
2022-12-26T18:16:52.173Z,5.20
2022-12-26T18:19:20.350Z,4.90
2022-12-26T18:21:48.127Z,5.07
2022-12-26T18:24:15.458Z,5.90
2022-12-26T18:26:43.712Z,5.97
2022-12-26T18:29:11.691Z,7.53
2022-12-26T18:31:39.857Z,6.47
2022-12-26T18:34:07.793Z,5.30
2022-12-26T18:36:38.916Z,5.23
2022-12-26T18:39:07.206Z,4.30
2022-12-26T18:41:36.157Z,4.90
2022-12-26T18:44:03.409Z,4.17
2022-12-26T18:46:31.014Z,5.10
2022-12-26T18:48:58.607Z,4.70
2022-12-26T18:51:28.283Z,5.47
2022-12-26T18:53:55.598Z,4.67
2022-12-26T18:56:23.753Z,4.47
2022-12-26T18:58:57.594Z,3.67
2022-12-26T19:01:26.622Z,4.17
2022-12-26T19:03:55.211Z,3.93
2022-12-26T19:06:27.597Z,4.30
2022-12-26T19:08:56.014Z,4.23
2022-12-26T19:11:23.649Z,4.83
2022-12-26T19:13:51.393Z,5.03
2022-12-26T19:16:19.370Z,6.23
2022-12-26T19:18:47.208Z,5.27
2022-12-26T19:21:16.130Z,5.73
2022-12-26T19:23:47.010Z,5.57
2022-12-26T19:26:17.119Z,6.10
2022-12-26T19:28:44.896Z,6.87
2022-12-26T19:31:15.103Z,7.10
2022-12-26T19:33:43.303Z,6.37
2022-12-26T19:36:12.072Z,8.20
2022-12-26T19:38:40.903Z,15.47
2022-12-26T19:41:12.189Z,10.43
2022-12-26T19:43:40.689Z,13.50
2022-12-26T19:46:11.639Z,14.80
2022-12-26T19:48:39.662Z,8.27
2022-12-26T19:51:10.398Z,8.80
2022-12-26T19:53:38.839Z,7.70
2022-12-26T19:56:20.052Z,7.73
2022-12-26T19:58:51.841Z,7.57
2022-12-26T20:01:26.846Z,6.67
2022-12-26T20:03:57.154Z,7.00
2022-12-26T20:06:26.964Z,6.53
2022-12-26T20:08:58.047Z,7.00
2022-12-26T20:11:30.177Z,7.63
2022-12-26T20:13:59.547Z,7.60
2022-12-26T20:19:15.660Z,8.13
2022-12-26T20:21:43.366Z,9.10
2022-12-26T20:24:12.265Z,7.37
2022-12-26T20:26:41.807Z,7.60
2022-12-26T20:29:09.469Z,8.50
2022-12-26T20:31:39.395Z,8.47
2022-12-26T20:34:07.757Z,6.90
2022-12-26T20:36:37.701Z,7.40
2022-12-26T20:39:08.898Z,7.67
2022-12-26T20:41:37.331Z,7.00
2022-12-26T20:44:05.369Z,5.83
2022-12-26T20:46:35.409Z,6.40
2022-12-26T20:49:05.143Z,6.50
2022-12-26T20:51:37.852Z,5.67
2022-12-26T20:54:07.887Z,6.10
2022-12-26T20:56:37.516Z,5.77
2022-12-26T20:59:06.255Z,4.80
2022-12-26T21:01:35.448Z,6.17
2022-12-26T21:04:04.474Z,5.07
2022-12-26T21:06:36.760Z,5.27
2022-12-26T21:09:06.974Z,5.53
2022-12-26T21:11:42.144Z,6.13
2022-12-26T21:14:16.712Z,7.10
2022-12-26T21:16:56.240Z,6.47
2022-12-26T21:19:25.792Z,6.17
2022-12-26T21:21:55.442Z,6.63
2022-12-26T21:24:28.225Z,6.00
2022-12-26T21:26:57.313Z,5.97
2022-12-26T21:29:28.113Z,9.87
2022-12-26T21:31:56.595Z,10.70
2022-12-26T21:34:26.901Z,7.50
2022-12-26T21:37:14.228Z,9.20
2022-12-26T21:39:43.083Z,9.13
2022-12-26T21:42:11.530Z,8.23
2022-12-26T21:44:39.901Z,9.13
2022-12-26T21:47:10.347Z,9.40
2022-12-26T21:49:37.994Z,10.67
2022-12-26T21:52:07.162Z,11.33
2022-12-26T21:54:53.485Z,9.53
2022-12-26T21:57:22.625Z,10.03
2022-12-26T21:59:59.618Z,9.63
2022-12-26T22:02:49.142Z,9.40
2022-12-26T22:05:18.737Z,10.00
2022-12-26T22:07:46.820Z,10.27
2022-12-26T22:10:34.128Z,9.70
2022-12-26T22:13:02.339Z,8.80
2022-12-26T22:15:49.228Z,8.30
2022-12-26T22:18:18.257Z,8.67
2022-12-26T22:20:46.348Z,7.80
2022-12-26T22:23:14.936Z,7.93
2022-12-26T22:25:42.871Z,7.13
2022-12-26T22:28:11.152Z,7.60
2022-12-26T22:30:38.832Z,7.33
2022-12-26T22:33:06.752Z,6.53
2022-12-26T22:35:34.405Z,6.83
2022-12-26T22:38:02.632Z,7.03
2022-12-26T22:40:30.803Z,7.27
2022-12-26T22:42:59.214Z,9.00
2022-12-26T22:45:26.978Z,9.97
2022-12-26T22:47:55.418Z,11.87
2022-12-26T22:50:22.884Z,9.00
2022-12-26T22:52:52.167Z,9.13
2022-12-26T22:55:19.903Z,9.60
2022-12-26T22:57:51.171Z,11.23
2022-12-26T23:00:20.483Z,9.53
2022-12-26T23:02:50.421Z,9.87
2022-12-26T23:05:18.773Z,8.57
2022-12-26T23:07:46.758Z,6.57
2022-12-26T23:10:22.552Z,7.13
2022-12-26T23:12:51.300Z,5.10
2022-12-26T23:15:21.911Z,3.80
2022-12-26T23:18:16.384Z,5.23
2022-12-26T23:21:02.461Z,4.87
2022-12-26T23:23:30.466Z,9.23
2022-12-26T23:26:01.294Z,4.53
2022-12-26T23:28:48.244Z,9.40
2022-12-26T23:31:16.522Z,4.27
2022-12-26T23:33:44.546Z,4.17
2022-12-26T23:36:12.277Z,8.60
2022-12-26T23:38:40.510Z,4.00
2022-12-26T23:41:08.224Z,6.40
2022-12-26T23:43:36.084Z,14.03
2022-12-26T23:46:09.927Z,16.70
2022-12-26T23:48:38.067Z,13.63
2022-12-26T23:51:07.210Z,5.53
2022-12-26T23:53:35.977Z,3.67
2022-12-26T23:56:03.692Z,3.00
2022-12-26T23:58:31.611Z,3.33
